VMMC/MFM METAR and TAF weather

Enter ICAO airport designator
Station Type Date Time Source
VMMC METAR 2020/11/27 14:30 UTC NOAA

VMMC 271430Z 01019KT CAVOK 22/16 Q1022 NOSIG


Station Type Date Time Source
VMMC Decoded METAR 2020/11/27 14:30 UTC NOAA

Taipa, Macau (VMMC) 22-10N 113-34E
Nov 27, 2020 - 09:30 AM EST / 2020.11.27 1430 UTC
Wind: from the N (010 degrees) at 22 MPH (19 KT):0
Visibility: greater than 7 mile(s):0
Temperature: 71 F (22 C)
Dew Point: 60 F (16 C)
Relative Humidity: 68%
Pressure (altimeter): 30.18 in. Hg (1022 hPa)
ob: VMMC 271430Z 01019KT CAVOK 22/16 Q1022 NOSIG
cycle: 14

Station Type Date Time Source
VMMC TAF 2020/11/27 12:21 UTC NOAA

TAF VMMC 271100Z 2712/2818 36015KT CAVOK
TEMPO 2714/2803 35020G30KT
TEMPO 2814/2818 36018G28KT

Example: see airport list